KPFN/PFN METAR and TAF weather

Enter ICAO airport designator
Station Type Date Time Source
KPFN METAR 2010/06/03 02:53 UTC NOAA

KPFN 030253Z VRB03KT 10SM FEW023 25/23 A2989


Station Type Date Time Source
KPFN Decoded METAR 2010/06/03 02:53 UTC NOAA

PANAMA CITY-BAY CTY INTERNATIONAL , FL, United States (KPFN) 30-12N 085-41W 12M
Jun 02, 2010 - 10:53 PM EDT / 2010.06.03 0253 UTC
Wind: Variable at 3 MPH (3 KT):0
Visibility: 10 mile(s):0
Sky conditions: mostly clear
Temperature: 77 F (25 C)
Dew Point: 73 F (23 C)
Relative Humidity: 88%
Pressure (altimeter): 29.89 in. Hg (1012 hPa)
ob: KPFN 030253Z VRB03KT 10SM FEW023 25/23 A2989
cycle: 3

Station Type Date Time Source
KPFN TAF 2010/05/22 23:20 UTC NOAA

TAF KPFN 222320Z 2300/2324 22005KT P6SM VCTS SCT050CB SCT250
FM230100 00000KT P6SM FEW050 SCT250
FM231000 00000KT 5SM BR SCT250
FM231300 02005KT P6SM SCT250
FM231800 27007KT P6SM SCT050 SCT250
AMD NOT SKED AFT 230400


Example: see airport list